X  Fermer Données météorologiques d'aviation de Metar     EHKD De Kooy Airport
Température
8°C Température
0°C Point de rosée
57% Humidité



Vent
8 MPH
13 KM/H
4 M/S
7 KTS



250°
OSO
Conditions actuelles

Ciel couvert Ciel couvert
Pression 1021 (hPa) - 30.15 (inHg)
Visibilité 6 (mile) - 9.7 (km)
Aéroport
Code de l'aéroport EHKD

Emplacement: De Kooy Airport
Distance: 34 (mi)

Metar:
EHKD 230955Z AUTO 25007KT 210V280 9999 OVC190 08/M00 Q1021 BLU NOSIG

Temps: 23-04-2024 11:55 CEST